Diepholz, Germany

5:43 PM CEST on April 18, 2015 (GMT +0200)
Kroge | | Change Station
CLOSE
Current Station
Personal Weather Station
Location: Lohne (Oldenburg), NIEDERSACHSEN
Elevation: 164 ft
Nearby Weather Stations

Elev 164 ft 52.62 °N, 8.27 °E | Updated 35 seconds ago

Partly Cloudy
Partly Cloudy
57.0 °F
Feels Like 57.0 °F
N
7.6
Wind Variable Wind from NNE
Gusts 9.8 mph

Today
High -- | Low -- °F
--% Chance of Precip.
Yesterday
High -- | Low -- °F
Precip. -- in
6:23 AM 8:30 PM
Waning Crescent, 0% visible
Pressure 30.27 in
Visibility 6.2 miles
Clouds Few 5500 ft
Dew Point 30 °F
Humidity 35%
Rainfall 0.00 in
Snow Depth Not available.
UV 1.0 out of 12
Pollen Not available.
Air Quality Not available.
Flu Activity Not available.
METAR ETHB 181520Z 01007KT 9999 FEW055 13/M02 Q1025 BLU+

More Conditions Fewer Conditions

Pressure 30.27 in
Visibility 6.2 miles
Clouds Few 5500 ft
Dew Point 30 °F
Humidity 35%
Rainfall 0.00 in
Snow Depth Not available.
UV 1.0 out of 12
Pollen Not available.
Air Quality Not available.
Flu Activity Not available.
METAR ETHB 181520Z 01007KT 9999 FEW055 13/M02 Q1025 BLU+

More Conditions Fewer Conditions

10-Day Weather Forecast

Almanac

Astronomy

Apr. 18, 2015 Rise Set
Actual Time
Civil Twilight
Nautical Twilight
Astronomical Twilight
Moon
Length of Visible Light
Length of Day
Tomorrow will be .
, % of the Moon is Illuminated

Today's Extremes

Country Highs Country Lows

Community

WunderPhotos

Upload Photos

1,814,439 photos uploaded!

WunderBlogs® & News

Nearby

Air Quality

  Air Quality AQ Index Pollutant
Not available.

Snow Depth

Station Depth Elevation

Earthquake Activity

City Distance Mag. Time & Date
Minimum magnitude displayed is 2.5.

Coastal Water Temperatures

Place Temperature

Stations

Nearby Weather Stations

Station Location Temp. Windchill Dew Point Humidity Wind Precip. Elev Updated Type